createdAt,value
2023-08-15T00:03:29.678Z,100811.56
2023-08-15T00:08:32.315Z,100817.09
2023-08-15T00:13:34.927Z,100818.97
2023-08-15T00:18:38.779Z,100809.19
2023-08-15T00:23:44.386Z,100811.34
2023-08-15T00:28:47.402Z,100790.03
2023-08-15T00:33:50.474Z,100810.41
2023-08-15T00:38:53.495Z,100813.69
2023-08-15T00:43:56.329Z,100784.38
2023-08-15T00:48:59.683Z,100802.38
2023-08-15T00:54:02.538Z,100807.13
2023-08-15T00:59:05.684Z,100786.22
2023-08-15T01:04:10.278Z,100787.75
2023-08-15T01:09:16.148Z,100786.44
2023-08-15T01:14:21.173Z,100773.41
2023-08-15T01:19:41.786Z,100776.63
2023-08-15T01:24:46.609Z,100783.06
2023-08-15T01:29:54.284Z,100766.66
2023-08-15T01:35:19.925Z,100782.53
2023-08-15T01:40:22.964Z,100796.50
2023-08-15T01:45:27.043Z,100790.00
2023-08-15T01:50:31.484Z,100784.69
2023-08-15T01:55:34.137Z,100780.94
2023-08-15T02:00:37.427Z,100774.28
2023-08-15T02:05:43.259Z,100771.78
2023-08-15T02:10:46.191Z,100776.09
2023-08-15T02:15:49.437Z,100734.03
2023-08-15T02:20:51.996Z,100765.44
2023-08-15T02:25:54.995Z,100772.72
2023-08-15T02:31:08.472Z,100755.22
2023-08-15T02:36:12.432Z,100775.56
2023-08-15T02:41:15.432Z,100782.25
2023-08-15T02:46:26.572Z,100791.50
2023-08-15T02:51:54.660Z,100789.66
2023-08-15T02:56:57.415Z,100786.78
2023-08-15T03:02:25.087Z,100778.50
2023-08-15T03:07:29.393Z,100777.38
2023-08-15T03:12:32.301Z,100781.66
2023-08-15T03:17:41.324Z,100781.47
2023-08-15T03:22:46.538Z,100780.97
2023-08-15T03:27:50.101Z,100776.03
2023-08-15T03:32:53.357Z,100772.44
2023-08-15T03:38:06.001Z,100772.91
2023-08-15T03:43:08.649Z,100775.56
2023-08-15T03:48:11.641Z,100775.44
2023-08-15T03:53:14.466Z,100779.91
2023-08-15T03:58:19.007Z,100782.00
2023-08-15T04:03:21.446Z,100781.09
2023-08-15T04:08:30.503Z,100775.53
2023-08-15T04:13:34.816Z,100778.78
2023-08-15T04:18:37.193Z,100765.41
2023-08-15T04:23:40.074Z,100783.75
2023-08-15T04:28:52.216Z,100776.06
2023-08-15T04:33:55.209Z,100769.53
2023-08-15T04:38:58.713Z,100773.31
2023-08-15T04:44:01.494Z,100780.28
2023-08-15T04:49:04.259Z,100766.28
2023-08-15T04:54:07.913Z,100767.03
2023-08-15T04:59:11.148Z,100790.78
2023-08-15T05:04:13.771Z,100783.03
2023-08-15T05:09:16.380Z,100788.94
2023-08-15T05:14:19.652Z,100797.50
2023-08-15T05:19:22.612Z,100806.38
2023-08-15T05:24:26.931Z,100810.75
2023-08-15T05:29:31.646Z,100809.00
2023-08-15T05:34:34.750Z,100816.84
2023-08-15T05:39:39.359Z,100807.34
2023-08-15T05:44:41.979Z,100817.75
2023-08-15T05:49:46.224Z,100820.34
2023-08-15T05:54:48.906Z,100822.97
2023-08-15T05:59:51.526Z,100829.47
2023-08-15T06:04:54.748Z,100824.53
2023-08-15T06:09:57.413Z,100822.41
2023-08-15T06:15:00.158Z,100806.88
2023-08-15T06:20:02.611Z,100808.56
2023-08-15T06:25:05.948Z,100807.03
2023-08-15T06:30:10.202Z,100811.41
2023-08-15T06:35:18.073Z,100805.03
2023-08-15T06:40:20.956Z,100792.19
2023-08-15T06:45:25.127Z,100786.47
2023-08-15T06:50:28.114Z,100793.03
2023-08-15T06:55:31.589Z,100803.81
2023-08-15T07:00:34.185Z,100805.81
2023-08-15T07:05:36.833Z,100802.59
2023-08-15T07:10:40.130Z,100806.16
2023-08-15T07:15:42.645Z,100797.75
2023-08-15T07:20:46.287Z,100798.53
2023-08-15T07:25:49.298Z,100782.19
2023-08-15T07:30:51.756Z,100783.78
2023-08-15T07:35:57.170Z,100776.59
2023-08-15T07:40:59.950Z,100777.78
2023-08-15T07:46:02.518Z,100777.78
2023-08-15T07:51:05.119Z,100776.50
2023-08-15T07:56:09.209Z,100754.50
2023-08-15T08:01:16.275Z,100762.47
2023-08-15T08:06:37.085Z,100764.88
2023-08-15T08:11:43.543Z,100770.34
2023-08-15T08:16:46.557Z,100769.91
2023-08-15T08:21:49.065Z,100769.59
2023-08-15T08:27:06.181Z,100764.34
2023-08-15T08:32:09.086Z,100765.09
2023-08-15T08:37:12.579Z,100760.97
2023-08-15T08:42:17.235Z,100764.28
2023-08-15T08:47:23.934Z,100764.03
2023-08-15T08:52:42.593Z,100762.66
2023-08-15T08:57:47.521Z,100767.03
2023-08-15T09:02:50.813Z,100760.81
2023-08-15T09:07:53.775Z,100755.44
2023-08-15T09:13:01.646Z,100751.50
2023-08-15T09:18:06.430Z,100759.72
2023-08-15T09:23:10.769Z,100756.06
2023-08-15T09:28:14.644Z,100757.44
2023-08-15T09:33:17.372Z,100754.53
2023-08-15T09:38:19.845Z,100756.97
2023-08-15T09:43:22.788Z,100748.41
2023-08-15T09:48:35.928Z,100752.59
2023-08-15T09:53:39.892Z,100756.69
2023-08-15T09:58:42.666Z,100748.25
2023-08-15T10:03:45.725Z,100750.72
2023-08-15T10:08:48.781Z,100748.78
2023-08-15T10:13:52.584Z,100748.69
2023-08-15T10:18:55.888Z,100748.25
2023-08-15T10:24:05.863Z,100740.88
2023-08-15T10:29:25.769Z,100736.84
2023-08-15T10:34:33.740Z,100741.75
2023-08-15T10:39:39.282Z,100723.84
2023-08-15T10:45:01.441Z,100740.94
2023-08-15T10:50:04.855Z,100730.22
2023-08-15T10:55:11.949Z,100736.09
2023-08-15T11:00:31.180Z,100736.81
2023-08-15T11:05:35.403Z,100723.88
2023-08-15T11:10:42.368Z,100720.84
2023-08-15T11:15:58.750Z,100724.00
2023-08-15T11:21:05.005Z,100713.38
2023-08-15T11:26:13.485Z,100714.25
2023-08-15T11:31:22.410Z,100725.13
2023-08-15T11:36:25.895Z,100721.19
2023-08-15T11:41:36.853Z,100717.56
2023-08-15T11:51:53.143Z,100717.16
2023-08-15T11:57:06.523Z,100718.88
2023-08-15T12:02:13.878Z,100704.31
2023-08-15T12:07:33.226Z,100710.25
2023-08-15T12:12:50.696Z,100708.47
2023-08-15T12:17:53.401Z,100697.84
2023-08-15T12:23:38.566Z,100698.03
2023-08-15T12:28:42.052Z,100682.97
2023-08-15T12:33:47.424Z,100679.84
2023-08-15T12:38:51.479Z,100679.50
2023-08-15T12:43:54.236Z,100686.75
2023-08-15T12:49:03.877Z,100674.50
2023-08-15T12:54:06.883Z,100673.47
2023-08-15T12:59:10.386Z,100668.63
2023-08-15T13:04:20.396Z,100669.41
2023-08-15T13:09:23.029Z,100673.84
2023-08-15T13:14:33.223Z,100664.84
2023-08-15T13:19:36.933Z,100661.81
2023-08-15T13:24:42.651Z,100663.03
2023-08-15T13:30:12.428Z,100661.81
2023-08-15T13:35:29.852Z,100663.44
2023-08-15T13:40:32.965Z,100663.00
2023-08-15T13:45:35.916Z,100665.50
2023-08-15T13:50:39.238Z,100661.25
2023-08-15T13:55:45.773Z,100653.16
2023-08-15T14:00:51.652Z,100655.19
2023-08-15T14:05:56.519Z,100658.16
2023-08-15T14:11:01.146Z,100653.47
2023-08-15T14:16:04.438Z,100654.59
2023-08-15T14:21:10.436Z,100653.66
2023-08-15T14:26:15.085Z,100658.06
2023-08-15T14:31:43.383Z,100648.97
2023-08-15T14:36:48.200Z,100648.56
2023-08-15T14:41:51.916Z,100637.84
2023-08-15T14:46:54.757Z,100650.03
2023-08-15T14:51:57.630Z,100639.44
2023-08-15T14:57:32.354Z,100640.50
2023-08-15T15:02:43.921Z,100641.41
2023-08-15T15:07:47.398Z,100645.81
2023-08-15T15:12:50.332Z,100640.13
2023-08-15T15:17:58.455Z,100632.13
2023-08-15T15:23:01.099Z,100630.56
2023-08-15T15:28:03.599Z,100632.78
2023-08-15T15:33:07.271Z,100644.59
2023-08-15T15:38:10.009Z,100632.00
2023-08-15T15:43:12.577Z,100635.09
2023-08-15T15:48:15.179Z,100633.44
2023-08-15T15:53:18.562Z,100639.38
2023-08-15T15:58:27.983Z,100632.00
2023-08-15T16:03:31.069Z,100644.63
2023-08-15T16:08:33.778Z,100640.63
2023-08-15T16:13:36.879Z,100639.84
2023-08-15T16:18:39.415Z,100641.59
2023-08-15T16:23:42.927Z,100631.19
2023-08-15T16:28:51.907Z,100629.03
2023-08-15T16:33:54.915Z,100643.00
2023-08-15T16:38:57.317Z,100644.19
2023-08-15T16:43:59.958Z,100647.53
2023-08-15T16:49:02.326Z,100635.41
2023-08-15T16:54:06.050Z,100635.75
2023-08-15T16:59:14.343Z,100648.78
2023-08-15T17:04:17.476Z,100640.31
2023-08-15T17:09:20.345Z,100661.00
2023-08-15T17:14:23.145Z,100658.41
2023-08-15T17:19:26.044Z,100667.31
2023-08-15T17:24:28.959Z,100658.19
2023-08-15T17:29:31.437Z,100669.03
2023-08-15T17:34:36.678Z,100677.69
2023-08-15T17:39:39.246Z,100685.75
2023-08-15T17:44:42.606Z,100692.16
2023-08-15T17:49:45.844Z,100684.81
2023-08-15T17:54:59.165Z,100684.28
2023-08-15T18:00:02.992Z,100686.44
2023-08-15T18:05:06.862Z,100691.81
2023-08-15T18:10:12.315Z,100703.97
2023-08-15T18:15:15.420Z,100707.22
2023-08-15T18:20:18.191Z,100698.84
2023-08-15T18:25:30.323Z,100717.69
2023-08-15T18:30:33.970Z,100729.63
2023-08-15T18:35:37.777Z,100738.44
2023-08-15T18:40:41.909Z,100740.44
2023-08-15T18:46:09.473Z,100738.34
2023-08-15T18:51:12.340Z,100745.88
2023-08-15T18:56:28.813Z,100747.00
2023-08-15T19:02:02.671Z,100757.75
2023-08-15T19:07:06.526Z,100740.44
2023-08-15T19:12:14.177Z,100731.97
2023-08-15T19:17:19.959Z,100752.34
2023-08-15T19:22:22.827Z,100749.03
2023-08-15T19:27:26.687Z,100744.88
2023-08-15T19:32:29.568Z,100748.44
2023-08-15T19:37:38.864Z,100744.78
2023-08-15T19:42:50.043Z,100739.88
2023-08-15T19:48:20.644Z,100744.25
2023-08-15T19:53:24.074Z,100741.38
2023-08-15T19:58:26.627Z,100735.03
2023-08-15T20:03:48.341Z,100743.91
2023-08-15T20:08:51.373Z,100738.31
2023-08-15T20:13:59.454Z,100740.38
2023-08-15T20:19:02.619Z,100746.63
2023-08-15T20:24:06.564Z,100740.53
2023-08-15T20:29:38.164Z,100740.03
2023-08-15T20:34:41.663Z,100745.88
2023-08-15T20:39:44.507Z,100740.56
2023-08-15T20:44:47.433Z,100750.53
2023-08-15T20:49:49.781Z,100750.91
2023-08-15T20:54:54.109Z,100742.47
2023-08-15T20:59:58.337Z,100738.84
2023-08-15T21:05:02.606Z,100745.59
2023-08-15T21:10:06.181Z,100743.88
2023-08-15T21:15:10.610Z,100746.25
2023-08-15T21:20:13.823Z,100738.22
2023-08-15T21:25:16.775Z,100740.50
2023-08-15T21:30:19.712Z,100735.00
2023-08-15T21:35:22.559Z,100738.53
2023-08-15T21:40:25.115Z,100737.03
2023-08-15T21:45:28.076Z,100738.28
2023-08-15T21:51:21.192Z,100746.59
2023-08-15T21:56:24.164Z,100743.28
2023-08-15T22:01:34.980Z,100731.66
2023-08-15T22:06:40.955Z,100736.03
2023-08-15T22:11:45.078Z,100743.72
2023-08-15T22:16:47.838Z,100728.84
2023-08-15T22:21:50.488Z,100732.81
2023-08-15T22:27:18.345Z,100733.81
2023-08-15T22:32:59.159Z,100742.59
2023-08-15T22:38:08.768Z,100738.28
2023-08-15T22:43:11.806Z,100740.94
2023-08-15T22:48:14.660Z,100740.56
2023-08-15T22:53:17.789Z,100742.78
2023-08-15T22:58:31.486Z,100725.66
2023-08-15T23:04:26.321Z,100743.97
2023-08-15T23:09:41.575Z,100749.44
2023-08-15T23:14:44.562Z,100737.50
2023-08-15T23:19:47.339Z,100725.03
2023-08-15T23:24:49.916Z,100747.94
2023-08-15T23:29:52.900Z,100751.50
2023-08-15T23:34:55.742Z,100754.56
2023-08-15T23:39:58.271Z,100753.63
2023-08-15T23:45:01.185Z,100751.94
2023-08-15T23:50:04.511Z,100756.72
2023-08-15T23:55:12.389Z,100759.34
